sensor_id;sensor_type;location;lat;lon;timestamp;temperature;humidity
23540;DHT22;11947;50.810;4.394;2024-02-23T00:02:18;5.90;99.90
23540;DHT22;11947;50.810;4.394;2024-02-23T00:04:44;5.90;99.90
23540;DHT22;11947;50.810;4.394;2024-02-23T00:07:10;5.80;99.90
23540;DHT22;11947;50.810;4.394;2024-02-23T00:09:37;5.80;99.90
23540;DHT22;11947;50.810;4.394;2024-02-23T00:12:03;5.80;99.90
23540;DHT22;11947;50.810;4.394;2024-02-23T00:14:30;5.70;99.90
23540;DHT22;11947;50.810;4.394;2024-02-23T00:17:01;5.80;99.90
23540;DHT22;11947;50.810;4.394;2024-02-23T00:19:27;5.80;99.90
23540;DHT22;11947;50.810;4.394;2024-02-23T00:21:53;5.70;99.90
23540;DHT22;11947;50.810;4.394;2024-02-23T00:24:19;5.60;99.90
23540;DHT22;11947;50.810;4.394;2024-02-23T00:26:48;5.70;99.90
23540;DHT22;11947;50.810;4.394;2024-02-23T00:29:14;5.70;99.90
23540;DHT22;11947;50.810;4.394;2024-02-23T00:31:40;5.70;99.90
23540;DHT22;11947;50.810;4.394;2024-02-23T00:34:08;5.70;99.90
23540;DHT22;11947;50.810;4.394;2024-02-23T00:36:39;5.60;99.90
23540;DHT22;11947;50.810;4.394;2024-02-23T00:39:08;5.70;99.90
23540;DHT22;11947;50.810;4.394;2024-02-23T00:41:35;5.70;99.90
23540;DHT22;11947;50.810;4.394;2024-02-23T00:44:01;5.70;99.90
23540;DHT22;11947;50.810;4.394;2024-02-23T00:46:27;5.80;99.90
23540;DHT22;11947;50.810;4.394;2024-02-23T00:48:53;5.90;99.90
23540;DHT22;11947;50.810;4.394;2024-02-23T00:51:19;5.80;99.90
23540;DHT22;11947;50.810;4.394;2024-02-23T00:53:45;5.80;99.90
23540;DHT22;11947;50.810;4.394;2024-02-23T00:56:10;5.80;99.90
23540;DHT22;11947;50.810;4.394;2024-02-23T00:58:36;5.80;99.90
23540;DHT22;11947;50.810;4.394;2024-02-23T01:01:02;5.70;99.90
23540;DHT22;11947;50.810;4.394;2024-02-23T01:03:27;5.80;99.90
23540;DHT22;11947;50.810;4.394;2024-02-23T01:05:53;5.80;99.90
23540;DHT22;11947;50.810;4.394;2024-02-23T01:08:19;5.80;99.90
23540;DHT22;11947;50.810;4.394;2024-02-23T01:10:45;5.70;99.90
23540;DHT22;11947;50.810;4.394;2024-02-23T01:13:11;5.60;99.90
23540;DHT22;11947;50.810;4.394;2024-02-23T01:15:36;5.60;99.90
23540;DHT22;11947;50.810;4.394;2024-02-23T01:18:03;5.60;99.90
23540;DHT22;11947;50.810;4.394;2024-02-23T01:20:29;5.70;99.90
23540;DHT22;11947;50.810;4.394;2024-02-23T01:22:54;5.60;99.90
23540;DHT22;11947;50.810;4.394;2024-02-23T01:25:20;5.60;99.90
23540;DHT22;11947;50.810;4.394;2024-02-23T01:27:46;5.70;99.90
23540;DHT22;11947;50.810;4.394;2024-02-23T01:30:12;5.50;99.90
23540;DHT22;11947;50.810;4.394;2024-02-23T01:32:37;5.40;99.90
23540;DHT22;11947;50.810;4.394;2024-02-23T01:35:05;5.40;99.90
23540;DHT22;11947;50.810;4.394;2024-02-23T01:37:31;5.50;99.90
23540;DHT22;11947;50.810;4.394;2024-02-23T01:39:58;5.50;99.90
23540;DHT22;11947;50.810;4.394;2024-02-23T01:42:25;5.50;99.90
23540;DHT22;11947;50.810;4.394;2024-02-23T01:44:51;5.50;99.90
23540;DHT22;11947;50.810;4.394;2024-02-23T01:47:17;5.50;99.90
23540;DHT22;11947;50.810;4.394;2024-02-23T01:49:45;5.50;99.90
23540;DHT22;11947;50.810;4.394;2024-02-23T01:52:11;5.40;99.90
23540;DHT22;11947;50.810;4.394;2024-02-23T01:54:38;5.50;99.90
23540;DHT22;11947;50.810;4.394;2024-02-23T01:57:04;5.50;99.90
23540;DHT22;11947;50.810;4.394;2024-02-23T01:59:30;5.60;99.90
23540;DHT22;11947;50.810;4.394;2024-02-23T02:01:55;5.60;99.90
23540;DHT22;11947;50.810;4.394;2024-02-23T02:04:21;5.70;99.90
23540;DHT22;11947;50.810;4.394;2024-02-23T02:06:48;5.70;99.90
23540;DHT22;11947;50.810;4.394;2024-02-23T02:09:14;5.70;99.90
23540;DHT22;11947;50.810;4.394;2024-02-23T02:11:47;5.80;99.90
23540;DHT22;11947;50.810;4.394;2024-02-23T02:14:13;5.90;99.90
23540;DHT22;11947;50.810;4.394;2024-02-23T02:16:39;6.00;99.90
23540;DHT22;11947;50.810;4.394;2024-02-23T02:19:05;6.10;99.90
23540;DHT22;11947;50.810;4.394;2024-02-23T02:21:31;6.00;99.90
23540;DHT22;11947;50.810;4.394;2024-02-23T02:23:57;5.90;99.90
23540;DHT22;11947;50.810;4.394;2024-02-23T02:26:23;5.90;99.90
23540;DHT22;11947;50.810;4.394;2024-02-23T02:28:48;5.90;99.90
23540;DHT22;11947;50.810;4.394;2024-02-23T02:31:14;5.90;99.90
23540;DHT22;11947;50.810;4.394;2024-02-23T02:33:40;5.90;99.90
23540;DHT22;11947;50.810;4.394;2024-02-23T02:36:06;5.90;99.90
23540;DHT22;11947;50.810;4.394;2024-02-23T02:38:32;5.90;99.90
23540;DHT22;11947;50.810;4.394;2024-02-23T02:41:01;5.80;99.90
23540;DHT22;11947;50.810;4.394;2024-02-23T02:43:27;5.70;99.90
23540;DHT22;11947;50.810;4.394;2024-02-23T02:45:53;5.70;99.90
23540;DHT22;11947;50.810;4.394;2024-02-23T02:48:18;5.80;99.90
23540;DHT22;11947;50.810;4.394;2024-02-23T02:50:45;5.80;99.90
23540;DHT22;11947;50.810;4.394;2024-02-23T02:53:11;5.90;99.90
23540;DHT22;11947;50.810;4.394;2024-02-23T02:55:40;5.80;99.90
23540;DHT22;11947;50.810;4.394;2024-02-23T02:58:06;5.70;99.90
23540;DHT22;11947;50.810;4.394;2024-02-23T03:00:32;5.90;99.90
23540;DHT22;11947;50.810;4.394;2024-02-23T03:02:57;6.00;99.90
23540;DHT22;11947;50.810;4.394;2024-02-23T03:05:23;5.90;99.90
23540;DHT22;11947;50.810;4.394;2024-02-23T03:07:50;6.00;99.90
23540;DHT22;11947;50.810;4.394;2024-02-23T03:10:16;6.00;99.90
23540;DHT22;11947;50.810;4.394;2024-02-23T03:12:42;6.00;99.90
23540;DHT22;11947;50.810;4.394;2024-02-23T03:15:08;5.90;99.90
23540;DHT22;11947;50.810;4.394;2024-02-23T03:17:35;5.80;99.90
23540;DHT22;11947;50.810;4.394;2024-02-23T03:20:01;5.90;99.90
23540;DHT22;11947;50.810;4.394;2024-02-23T03:22:27;6.00;99.90
23540;DHT22;11947;50.810;4.394;2024-02-23T03:24:52;6.00;99.90
23540;DHT22;11947;50.810;4.394;2024-02-23T03:27:19;6.00;99.90
23540;DHT22;11947;50.810;4.394;2024-02-23T03:29:47;6.00;99.90
23540;DHT22;11947;50.810;4.394;2024-02-23T03:32:13;5.90;99.90
23540;DHT22;11947;50.810;4.394;2024-02-23T03:34:38;6.00;99.90
23540;DHT22;11947;50.810;4.394;2024-02-23T03:37:04;6.00;99.90
23540;DHT22;11947;50.810;4.394;2024-02-23T03:39:30;5.90;99.90
23540;DHT22;11947;50.810;4.394;2024-02-23T03:41:57;5.90;99.90
23540;DHT22;11947;50.810;4.394;2024-02-23T03:44:23;6.00;99.90
23540;DHT22;11947;50.810;4.394;2024-02-23T03:46:48;6.10;99.90
23540;DHT22;11947;50.810;4.394;2024-02-23T03:49:14;6.10;99.90
23540;DHT22;11947;50.810;4.394;2024-02-23T03:51:39;5.90;99.90
23540;DHT22;11947;50.810;4.394;2024-02-23T03:54:06;6.00;99.90
23540;DHT22;11947;50.810;4.394;2024-02-23T03:56:41;6.00;99.90
23540;DHT22;11947;50.810;4.394;2024-02-23T03:59:08;6.00;99.90
23540;DHT22;11947;50.810;4.394;2024-02-23T04:01:38;5.90;99.90
23540;DHT22;11947;50.810;4.394;2024-02-23T04:04:05;5.90;99.90
23540;DHT22;11947;50.810;4.394;2024-02-23T04:06:34;5.90;99.90
23540;DHT22;11947;50.810;4.394;2024-02-23T04:09:00;6.10;99.90
23540;DHT22;11947;50.810;4.394;2024-02-23T04:11:25;6.20;99.90
23540;DHT22;11947;50.810;4.394;2024-02-23T04:13:51;6.00;99.90
23540;DHT22;11947;50.810;4.394;2024-02-23T04:16:17;5.90;99.90
23540;DHT22;11947;50.810;4.394;2024-02-23T04:18:42;6.00;99.90
23540;DHT22;11947;50.810;4.394;2024-02-23T04:21:08;6.10;99.90
23540;DHT22;11947;50.810;4.394;2024-02-23T04:23:34;6.10;99.90
23540;DHT22;11947;50.810;4.394;2024-02-23T04:25:59;6.20;99.90
23540;DHT22;11947;50.810;4.394;2024-02-23T04:28:25;6.00;99.90
23540;DHT22;11947;50.810;4.394;2024-02-23T04:30:53;6.00;99.90
23540;DHT22;11947;50.810;4.394;2024-02-23T04:33:19;6.00;99.90
23540;DHT22;11947;50.810;4.394;2024-02-23T04:35:44;6.00;99.90
23540;DHT22;11947;50.810;4.394;2024-02-23T04:38:10;6.00;99.90
23540;DHT22;11947;50.810;4.394;2024-02-23T04:40:36;6.00;99.90
23540;DHT22;11947;50.810;4.394;2024-02-23T04:43:01;5.80;99.90
23540;DHT22;11947;50.810;4.394;2024-02-23T04:45:28;5.80;99.90
23540;DHT22;11947;50.810;4.394;2024-02-23T04:47:53;5.90;99.90
23540;DHT22;11947;50.810;4.394;2024-02-23T04:50:19;6.00;99.90
23540;DHT22;11947;50.810;4.394;2024-02-23T04:52:44;6.00;99.90
23540;DHT22;11947;50.810;4.394;2024-02-23T04:55:10;6.00;99.90
23540;DHT22;11947;50.810;4.394;2024-02-23T04:57:36;6.10;99.90
23540;DHT22;11947;50.810;4.394;2024-02-23T05:00:03;6.00;99.90
23540;DHT22;11947;50.810;4.394;2024-02-23T05:02:29;6.10;99.90
23540;DHT22;11947;50.810;4.394;2024-02-23T05:05:03;6.10;99.90
23540;DHT22;11947;50.810;4.394;2024-02-23T05:07:31;6.10;99.90
23540;DHT22;11947;50.810;4.394;2024-02-23T05:09:57;6.10;99.90
23540;DHT22;11947;50.810;4.394;2024-02-23T05:12:23;6.10;99.90
23540;DHT22;11947;50.810;4.394;2024-02-23T05:14:49;6.10;99.90
23540;DHT22;11947;50.810;4.394;2024-02-23T05:17:14;6.00;99.90
23540;DHT22;11947;50.810;4.394;2024-02-23T05:19:40;6.00;99.90
23540;DHT22;11947;50.810;4.394;2024-02-23T05:22:06;6.10;99.90
23540;DHT22;11947;50.810;4.394;2024-02-23T05:24:31;6.10;99.90
23540;DHT22;11947;50.810;4.394;2024-02-23T05:26:57;6.00;99.90
23540;DHT22;11947;50.810;4.394;2024-02-23T05:29:24;6.00;99.90
23540;DHT22;11947;50.810;4.394;2024-02-23T05:31:52;6.00;99.90
23540;DHT22;11947;50.810;4.394;2024-02-23T05:34:18;6.00;99.90
23540;DHT22;11947;50.810;4.394;2024-02-23T05:36:44;5.90;99.90
23540;DHT22;11947;50.810;4.394;2024-02-23T05:39:12;5.90;99.90
23540;DHT22;11947;50.810;4.394;2024-02-23T05:41:38;5.90;99.90
23540;DHT22;11947;50.810;4.394;2024-02-23T05:44:05;5.90;99.90
23540;DHT22;11947;50.810;4.394;2024-02-23T05:46:35;6.00;99.90
23540;DHT22;11947;50.810;4.394;2024-02-23T05:49:02;6.00;99.90
23540;DHT22;11947;50.810;4.394;2024-02-23T05:51:29;6.00;99.90
23540;DHT22;11947;50.810;4.394;2024-02-23T05:53:56;6.10;99.90
23540;DHT22;11947;50.810;4.394;2024-02-23T05:56:21;6.20;99.90
23540;DHT22;11947;50.810;4.394;2024-02-23T05:58:49;6.10;99.90
23540;DHT22;11947;50.810;4.394;2024-02-23T06:01:14;6.10;99.90
23540;DHT22;11947;50.810;4.394;2024-02-23T06:03:40;6.00;99.90
23540;DHT22;11947;50.810;4.394;2024-02-23T06:06:09;6.00;99.90
23540;DHT22;11947;50.810;4.394;2024-02-23T06:08:35;6.00;99.90
23540;DHT22;11947;50.810;4.394;2024-02-23T06:11:02;6.00;99.90
23540;DHT22;11947;50.810;4.394;2024-02-23T06:13:29;6.00;99.90
23540;DHT22;11947;50.810;4.394;2024-02-23T06:15:55;5.90;99.90
23540;DHT22;11947;50.810;4.394;2024-02-23T06:18:20;5.90;99.90
23540;DHT22;11947;50.810;4.394;2024-02-23T06:20:46;6.00;99.90
23540;DHT22;11947;50.810;4.394;2024-02-23T06:23:12;5.90;99.90
23540;DHT22;11947;50.810;4.394;2024-02-23T06:25:38;5.80;99.90
23540;DHT22;11947;50.810;4.394;2024-02-23T06:28:05;5.90;99.90
23540;DHT22;11947;50.810;4.394;2024-02-23T06:30:31;6.00;99.90
23540;DHT22;11947;50.810;4.394;2024-02-23T06:32:57;6.00;99.90
23540;DHT22;11947;50.810;4.394;2024-02-23T06:35:23;5.90;99.90
23540;DHT22;11947;50.810;4.394;2024-02-23T06:37:48;5.90;99.90
23540;DHT22;11947;50.810;4.394;2024-02-23T06:40:14;6.00;99.90
23540;DHT22;11947;50.810;4.394;2024-02-23T06:42:40;6.00;99.90
23540;DHT22;11947;50.810;4.394;2024-02-23T06:45:06;6.10;99.90
23540;DHT22;11947;50.810;4.394;2024-02-23T06:47:33;6.10;99.90
23540;DHT22;11947;50.810;4.394;2024-02-23T06:49:59;6.20;99.90
23540;DHT22;11947;50.810;4.394;2024-02-23T06:52:25;6.20;99.90
23540;DHT22;11947;50.810;4.394;2024-02-23T06:54:51;6.30;99.90
23540;DHT22;11947;50.810;4.394;2024-02-23T06:57:17;6.20;99.90
23540;DHT22;11947;50.810;4.394;2024-02-23T06:59:43;6.20;99.90
23540;DHT22;11947;50.810;4.394;2024-02-23T07:02:09;6.30;99.90
23540;DHT22;11947;50.810;4.394;2024-02-23T07:04:34;6.40;99.90
23540;DHT22;11947;50.810;4.394;2024-02-23T07:07:00;6.30;99.90
23540;DHT22;11947;50.810;4.394;2024-02-23T07:09:32;6.30;99.90
23540;DHT22;11947;50.810;4.394;2024-02-23T07:11:58;6.40;99.90
23540;DHT22;11947;50.810;4.394;2024-02-23T07:14:23;6.40;99.90
23540;DHT22;11947;50.810;4.394;2024-02-23T07:16:49;6.40;99.90
23540;DHT22;11947;50.810;4.394;2024-02-23T07:19:15;6.50;99.90
23540;DHT22;11947;50.810;4.394;2024-02-23T07:21:40;6.50;99.90
23540;DHT22;11947;50.810;4.394;2024-02-23T07:24:07;6.50;99.90
23540;DHT22;11947;50.810;4.394;2024-02-23T07:26:32;6.40;99.90
23540;DHT22;11947;50.810;4.394;2024-02-23T07:28:58;6.50;99.90
23540;DHT22;11947;50.810;4.394;2024-02-23T07:31:23;6.40;99.90
23540;DHT22;11947;50.810;4.394;2024-02-23T07:33:49;6.40;99.90
23540;DHT22;11947;50.810;4.394;2024-02-23T07:36:19;6.40;99.90
23540;DHT22;11947;50.810;4.394;2024-02-23T07:38:45;6.40;99.90
23540;DHT22;11947;50.810;4.394;2024-02-23T07:41:11;6.40;99.90
23540;DHT22;11947;50.810;4.394;2024-02-23T07:43:38;6.50;99.90
23540;DHT22;11947;50.810;4.394;2024-02-23T07:46:04;6.60;99.90
23540;DHT22;11947;50.810;4.394;2024-02-23T07:48:34;6.70;99.90
23540;DHT22;11947;50.810;4.394;2024-02-23T07:50:59;6.80;99.90
23540;DHT22;11947;50.810;4.394;2024-02-23T07:53:25;7.00;99.90
23540;DHT22;11947;50.810;4.394;2024-02-23T07:55:51;7.10;99.90
23540;DHT22;11947;50.810;4.394;2024-02-23T07:58:16;7.30;99.90
23540;DHT22;11947;50.810;4.394;2024-02-23T08:00:42;7.30;99.90
23540;DHT22;11947;50.810;4.394;2024-02-23T08:03:07;7.50;99.90
23540;DHT22;11947;50.810;4.394;2024-02-23T08:05:33;7.40;99.90
23540;DHT22;11947;50.810;4.394;2024-02-23T08:07:59;7.30;99.90
23540;DHT22;11947;50.810;4.394;2024-02-23T08:10:25;7.00;99.90
23540;DHT22;11947;50.810;4.394;2024-02-23T08:12:51;6.90;99.90
23540;DHT22;11947;50.810;4.394;2024-02-23T08:15:16;6.80;99.90
23540;DHT22;11947;50.810;4.394;2024-02-23T08:17:42;6.60;99.90
23540;DHT22;11947;50.810;4.394;2024-02-23T08:20:08;6.50;99.90
23540;DHT22;11947;50.810;4.394;2024-02-23T08:22:34;6.50;99.90
23540;DHT22;11947;50.810;4.394;2024-02-23T08:25:00;6.50;99.90
23540;DHT22;11947;50.810;4.394;2024-02-23T08:27:26;6.40;99.90
23540;DHT22;11947;50.810;4.394;2024-02-23T08:29:51;6.30;99.90
23540;DHT22;11947;50.810;4.394;2024-02-23T08:32:17;6.20;99.90
23540;DHT22;11947;50.810;4.394;2024-02-23T08:34:44;6.20;99.90
23540;DHT22;11947;50.810;4.394;2024-02-23T08:37:09;6.10;99.90
23540;DHT22;11947;50.810;4.394;2024-02-23T08:39:35;6.10;99.90
23540;DHT22;11947;50.810;4.394;2024-02-23T08:42:02;6.20;99.90
23540;DHT22;11947;50.810;4.394;2024-02-23T08:44:29;6.10;99.90
23540;DHT22;11947;50.810;4.394;2024-02-23T08:46:54;6.20;99.90
23540;DHT22;11947;50.810;4.394;2024-02-23T08:49:20;6.30;99.90
23540;DHT22;11947;50.810;4.394;2024-02-23T08:51:45;6.20;99.90
23540;DHT22;11947;50.810;4.394;2024-02-23T08:54:11;6.00;99.90
23540;DHT22;11947;50.810;4.394;2024-02-23T08:56:38;6.10;99.90
23540;DHT22;11947;50.810;4.394;2024-02-23T08:59:08;6.00;99.90
23540;DHT22;11947;50.810;4.394;2024-02-23T09:01:34;5.90;99.90
23540;DHT22;11947;50.810;4.394;2024-02-23T09:04:00;5.90;99.90
23540;DHT22;11947;50.810;4.394;2024-02-23T09:06:26;5.90;99.90
23540;DHT22;11947;50.810;4.394;2024-02-23T09:08:52;6.00;99.90
23540;DHT22;11947;50.810;4.394;2024-02-23T09:11:17;6.00;99.90
23540;DHT22;11947;50.810;4.394;2024-02-23T09:13:43;5.90;99.90
23540;DHT22;11947;50.810;4.394;2024-02-23T09:16:09;5.90;99.90
23540;DHT22;11947;50.810;4.394;2024-02-23T09:18:35;6.00;99.90
23540;DHT22;11947;50.810;4.394;2024-02-23T09:21:01;6.10;99.90
23540;DHT22;11947;50.810;4.394;2024-02-23T09:23:26;6.00;99.90
23540;DHT22;11947;50.810;4.394;2024-02-23T09:25:52;6.00;99.90
23540;DHT22;11947;50.810;4.394;2024-02-23T09:28:18;6.00;99.90
23540;DHT22;11947;50.810;4.394;2024-02-23T09:30:44;6.10;99.90
23540;DHT22;11947;50.810;4.394;2024-02-23T09:33:09;6.10;99.90
23540;DHT22;11947;50.810;4.394;2024-02-23T09:35:35;6.10;99.90
23540;DHT22;11947;50.810;4.394;2024-02-23T09:38:01;6.20;99.90
23540;DHT22;11947;50.810;4.394;2024-02-23T09:40:27;6.30;99.90
23540;DHT22;11947;50.810;4.394;2024-02-23T09:42:57;6.50;99.90
23540;DHT22;11947;50.810;4.394;2024-02-23T09:45:27;6.80;99.90
23540;DHT22;11947;50.810;4.394;2024-02-23T09:47:53;7.00;99.90
23540;DHT22;11947;50.810;4.394;2024-02-23T09:50:24;7.20;99.90
23540;DHT22;11947;50.810;4.394;2024-02-23T09:52:50;7.20;99.90
23540;DHT22;11947;50.810;4.394;2024-02-23T09:55:17;7.20;99.90
23540;DHT22;11947;50.810;4.394;2024-02-23T09:57:44;7.10;99.90
23540;DHT22;11947;50.810;4.394;2024-02-23T10:00:12;7.20;99.90
23540;DHT22;11947;50.810;4.394;2024-02-23T10:02:39;7.20;99.90
23540;DHT22;11947;50.810;4.394;2024-02-23T10:05:07;7.10;99.90
23540;DHT22;11947;50.810;4.394;2024-02-23T10:07:33;7.10;99.90
23540;DHT22;11947;50.810;4.394;2024-02-23T10:10:00;7.00;99.90
23540;DHT22;11947;50.810;4.394;2024-02-23T10:12:26;6.90;99.90
23540;DHT22;11947;50.810;4.394;2024-02-23T10:14:52;6.80;99.90
23540;DHT22;11947;50.810;4.394;2024-02-23T10:17:19;6.80;99.90
23540;DHT22;11947;50.810;4.394;2024-02-23T10:19:45;6.90;99.90
23540;DHT22;11947;50.810;4.394;2024-02-23T10:22:11;7.10;99.90
23540;DHT22;11947;50.810;4.394;2024-02-23T10:24:37;7.20;99.90
23540;DHT22;11947;50.810;4.394;2024-02-23T10:27:03;7.30;99.90
23540;DHT22;11947;50.810;4.394;2024-02-23T10:29:28;7.10;99.90
23540;DHT22;11947;50.810;4.394;2024-02-23T10:31:57;7.10;99.90
23540;DHT22;11947;50.810;4.394;2024-02-23T10:34:24;7.20;99.90
23540;DHT22;11947;50.810;4.394;2024-02-23T10:36:53;7.20;99.90
23540;DHT22;11947;50.810;4.394;2024-02-23T10:39:19;7.20;99.90
23540;DHT22;11947;50.810;4.394;2024-02-23T10:41:56;7.30;99.90
23540;DHT22;11947;50.810;4.394;2024-02-23T10:44:24;7.20;99.90
23540;DHT22;11947;50.810;4.394;2024-02-23T10:46:53;7.30;99.90
23540;DHT22;11947;50.810;4.394;2024-02-23T10:49:20;7.30;99.90
23540;DHT22;11947;50.810;4.394;2024-02-23T10:51:51;7.40;99.90
23540;DHT22;11947;50.810;4.394;2024-02-23T10:54:18;7.60;99.90
23540;DHT22;11947;50.810;4.394;2024-02-23T10:56:51;7.80;99.90
23540;DHT22;11947;50.810;4.394;2024-02-23T10:59:18;7.80;99.90
23540;DHT22;11947;50.810;4.394;2024-02-23T11:01:48;7.80;99.90
23540;DHT22;11947;50.810;4.394;2024-02-23T11:04:19;7.80;99.90
23540;DHT22;11947;50.810;4.394;2024-02-23T11:06:55;7.90;99.90
23540;DHT22;11947;50.810;4.394;2024-02-23T11:09:24;8.10;99.90
23540;DHT22;11947;50.810;4.394;2024-02-23T11:11:57;8.30;99.90
23540;DHT22;11947;50.810;4.394;2024-02-23T11:14:30;8.40;99.90
23540;DHT22;11947;50.810;4.394;2024-02-23T11:16:58;8.40;99.90
23540;DHT22;11947;50.810;4.394;2024-02-23T11:19:34;8.40;99.90
23540;DHT22;11947;50.810;4.394;2024-02-23T11:22:01;8.40;99.90
23540;DHT22;11947;50.810;4.394;2024-02-23T11:24:31;8.40;99.90
23540;DHT22;11947;50.810;4.394;2024-02-23T11:26:58;8.30;99.90
23540;DHT22;11947;50.810;4.394;2024-02-23T11:29:29;8.40;99.90
23540;DHT22;11947;50.810;4.394;2024-02-23T11:31:58;8.40;99.90
23540;DHT22;11947;50.810;4.394;2024-02-23T11:34:27;8.20;99.90
23540;DHT22;11947;50.810;4.394;2024-02-23T11:36:53;8.30;99.90
23540;DHT22;11947;50.810;4.394;2024-02-23T11:39:19;8.30;99.90
23540;DHT22;11947;50.810;4.394;2024-02-23T11:41:48;8.30;99.90
23540;DHT22;11947;50.810;4.394;2024-02-23T11:44:15;8.40;99.90
23540;DHT22;11947;50.810;4.394;2024-02-23T11:46:43;8.60;99.90
23540;DHT22;11947;50.810;4.394;2024-02-23T11:49:08;8.60;99.90
23540;DHT22;11947;50.810;4.394;2024-02-23T11:51:35;8.40;99.90
23540;DHT22;11947;50.810;4.394;2024-02-23T11:54:01;8.40;99.90
23540;DHT22;11947;50.810;4.394;2024-02-23T11:56:29;8.30;99.90
23540;DHT22;11947;50.810;4.394;2024-02-23T11:58:55;8.30;99.90
23540;DHT22;11947;50.810;4.394;2024-02-23T12:01:21;8.30;99.90
23540;DHT22;11947;50.810;4.394;2024-02-23T12:03:47;8.50;99.90
23540;DHT22;11947;50.810;4.394;2024-02-23T12:06:14;8.80;99.90
23540;DHT22;11947;50.810;4.394;2024-02-23T12:08:44;9.10;99.90
23540;DHT22;11947;50.810;4.394;2024-02-23T12:11:11;9.30;99.90
23540;DHT22;11947;50.810;4.394;2024-02-23T12:13:39;9.40;99.90
23540;DHT22;11947;50.810;4.394;2024-02-23T12:16:07;9.50;99.90
23540;DHT22;11947;50.810;4.394;2024-02-23T12:18:33;9.70;99.90
23540;DHT22;11947;50.810;4.394;2024-02-23T12:21:05;9.90;99.90
23540;DHT22;11947;50.810;4.394;2024-02-23T12:23:41;10.50;99.90
23540;DHT22;11947;50.810;4.394;2024-02-23T12:26:08;10.70;99.90
23540;DHT22;11947;50.810;4.394;2024-02-23T12:28:34;10.50;99.90
23540;DHT22;11947;50.810;4.394;2024-02-23T12:31:04;10.50;99.90
23540;DHT22;11947;50.810;4.394;2024-02-23T12:33:40;10.50;99.90
23540;DHT22;11947;50.810;4.394;2024-02-23T12:36:07;10.40;99.90
23540;DHT22;11947;50.810;4.394;2024-02-23T12:38:33;10.40;99.90
23540;DHT22;11947;50.810;4.394;2024-02-23T12:41:02;10.60;99.90
23540;DHT22;11947;50.810;4.394;2024-02-23T12:43:28;10.70;99.90
23540;DHT22;11947;50.810;4.394;2024-02-23T12:45:55;10.90;99.90
23540;DHT22;11947;50.810;4.394;2024-02-23T12:48:22;10.80;99.90
23540;DHT22;11947;50.810;4.394;2024-02-23T12:50:49;10.50;99.90
23540;DHT22;11947;50.810;4.394;2024-02-23T12:53:31;10.10;99.90
23540;DHT22;11947;50.810;4.394;2024-02-23T12:55:58;10.30;99.90
23540;DHT22;11947;50.810;4.394;2024-02-23T12:58:24;10.70;99.90
23540;DHT22;11947;50.810;4.394;2024-02-23T13:00:50;11.50;99.90
23540;DHT22;11947;50.810;4.394;2024-02-23T13:03:15;12.10;99.90
23540;DHT22;11947;50.810;4.394;2024-02-23T13:05:41;12.00;99.90
23540;DHT22;11947;50.810;4.394;2024-02-23T13:08:07;11.80;99.90
23540;DHT22;11947;50.810;4.394;2024-02-23T13:10:32;11.40;99.90
23540;DHT22;11947;50.810;4.394;2024-02-23T13:13:00;11.10;99.90
23540;DHT22;11947;50.810;4.394;2024-02-23T13:15:26;10.70;99.90
23540;DHT22;11947;50.810;4.394;2024-02-23T13:17:52;10.90;99.90
23540;DHT22;11947;50.810;4.394;2024-02-23T13:20:18;11.50;99.90
23540;DHT22;11947;50.810;4.394;2024-02-23T13:22:43;11.60;99.90
23540;DHT22;11947;50.810;4.394;2024-02-23T13:25:09;11.40;99.90
23540;DHT22;11947;50.810;4.394;2024-02-23T13:27:35;11.20;99.90
23540;DHT22;11947;50.810;4.394;2024-02-23T13:30:01;11.20;99.90
23540;DHT22;11947;50.810;4.394;2024-02-23T13:32:27;11.10;99.90
23540;DHT22;11947;50.810;4.394;2024-02-23T13:34:53;10.90;99.90
23540;DHT22;11947;50.810;4.394;2024-02-23T13:37:18;10.70;99.90
23540;DHT22;11947;50.810;4.394;2024-02-23T13:39:47;10.30;99.90
23540;DHT22;11947;50.810;4.394;2024-02-23T13:42:14;10.00;99.90
23540;DHT22;11947;50.810;4.394;2024-02-23T13:44:39;9.80;99.90
23540;DHT22;11947;50.810;4.394;2024-02-23T13:47:05;9.60;99.90
23540;DHT22;11947;50.810;4.394;2024-02-23T13:49:31;9.70;99.90
23540;DHT22;11947;50.810;4.394;2024-02-23T13:51:56;9.80;99.90
23540;DHT22;11947;50.810;4.394;2024-02-23T13:54:22;10.40;99.90
23540;DHT22;11947;50.810;4.394;2024-02-23T13:56:48;11.00;99.90
23540;DHT22;11947;50.810;4.394;2024-02-23T13:59:13;11.50;99.90
23540;DHT22;11947;50.810;4.394;2024-02-23T14:01:39;12.00;99.90
23540;DHT22;11947;50.810;4.394;2024-02-23T14:04:06;11.50;99.90
23540;DHT22;11947;50.810;4.394;2024-02-23T14:06:33;11.10;99.90
23540;DHT22;11947;50.810;4.394;2024-02-23T14:08:59;11.40;99.90
23540;DHT22;11947;50.810;4.394;2024-02-23T14:11:25;11.80;99.90
23540;DHT22;11947;50.810;4.394;2024-02-23T14:13:50;11.90;99.90
23540;DHT22;11947;50.810;4.394;2024-02-23T14:16:17;11.40;99.90
23540;DHT22;11947;50.810;4.394;2024-02-23T14:18:44;10.80;99.90
23540;DHT22;11947;50.810;4.394;2024-02-23T14:21:10;11.00;99.90
23540;DHT22;11947;50.810;4.394;2024-02-23T14:23:36;11.20;99.90
23540;DHT22;11947;50.810;4.394;2024-02-23T14:26:03;11.30;99.90
23540;DHT22;11947;50.810;4.394;2024-02-23T14:28:29;11.20;99.90
23540;DHT22;11947;50.810;4.394;2024-02-23T14:30:54;11.40;99.90
23540;DHT22;11947;50.810;4.394;2024-02-23T14:33:20;11.40;99.90
23540;DHT22;11947;50.810;4.394;2024-02-23T14:35:47;11.30;99.90
23540;DHT22;11947;50.810;4.394;2024-02-23T14:38:15;11.30;99.90
23540;DHT22;11947;50.810;4.394;2024-02-23T14:40:40;11.30;99.90
23540;DHT22;11947;50.810;4.394;2024-02-23T14:43:06;11.20;99.90
23540;DHT22;11947;50.810;4.394;2024-02-23T14:45:32;11.20;99.90
23540;DHT22;11947;50.810;4.394;2024-02-23T14:47:57;11.20;99.90
23540;DHT22;11947;50.810;4.394;2024-02-23T14:50:23;11.30;99.90
23540;DHT22;11947;50.810;4.394;2024-02-23T14:52:50;11.30;99.90
23540;DHT22;11947;50.810;4.394;2024-02-23T14:55:15;10.90;99.90
23540;DHT22;11947;50.810;4.394;2024-02-23T14:57:41;10.80;99.90
23540;DHT22;11947;50.810;4.394;2024-02-23T15:00:07;10.60;99.90
23540;DHT22;11947;50.810;4.394;2024-02-23T15:02:33;10.50;99.90
23540;DHT22;11947;50.810;4.394;2024-02-23T15:04:59;10.70;99.90
23540;DHT22;11947;50.810;4.394;2024-02-23T15:07:25;10.70;99.90
23540;DHT22;11947;50.810;4.394;2024-02-23T15:09:50;10.70;99.90
23540;DHT22;11947;50.810;4.394;2024-02-23T15:12:16;10.30;99.90
23540;DHT22;11947;50.810;4.394;2024-02-23T15:14:42;10.10;99.90
23540;DHT22;11947;50.810;4.394;2024-02-23T15:17:07;9.90;99.90
23540;DHT22;11947;50.810;4.394;2024-02-23T15:19:33;10.00;99.90
23540;DHT22;11947;50.810;4.394;2024-02-23T15:21:59;10.00;99.90
23540;DHT22;11947;50.810;4.394;2024-02-23T15:24:25;10.00;99.90
23540;DHT22;11947;50.810;4.394;2024-02-23T15:26:51;9.80;99.90
23540;DHT22;11947;50.810;4.394;2024-02-23T15:29:17;9.80;99.90
23540;DHT22;11947;50.810;4.394;2024-02-23T15:31:43;9.90;99.90
23540;DHT22;11947;50.810;4.394;2024-02-23T15:34:09;9.90;99.90
23540;DHT22;11947;50.810;4.394;2024-02-23T15:36:35;9.90;99.90
23540;DHT22;11947;50.810;4.394;2024-02-23T15:39:01;9.80;99.90